Terminal Aerodrome Forecast
Issued by NWS Duluth, MN

Home | Current Version | Previous Version | Text Only | Print | Product List | Glossary On
Versions: 1 2 3 4 5 6 7 8 9 10 11 12 13 14 15 16 17 18 19 20 21 22 23 24 25
074
FTUS43 KDLH 241515 AAB
TAFINL
TAF AMD
KINL 241515Z 2415/2512 30010KT P6SM VCSH SCT023 BKN060
      TEMPO 2416/2417 -SHRA BKN023 OVC060
     FM241700 30010KT P6SM VCSH BKN025 OVC060
     FM241900 29006KT P6SM -SHRA SCT015 OVC025
     FM250000 31006KT P6SM OVC020=

USA.gov is the U.S. government's official web portal to all federal, state and local government web resources and services.